Time;durP1;ratioP1;P1;durP2;ratioP2;P2;SDS_P1;SDS_P2;PMS_P1;PMS_P2;Temp;Humidity;BMP_temperature;BMP_pressure;BME280_temperature;BME280_humidity;BME280_pressure;Samples;Min_cycle;Max_cycle;Signal;HPM_P1;HPM_P2
2023/08/17 00:02:16;;;;;;;8.13;5.03;;;;;;;;;;4902293;29;20036;-78
2023/08/17 00:04:42;;;;;;;9.13;5.25;;;;;;;;;;4919231;29;20380;-77
2023/08/17 00:07:07;;;;;;;8.13;4.90;;;;;;;;;;4902319;29;20028;-79
2023/08/17 00:09:33;;;;;;;7.22;5.35;;;;;;;;;;4919242;29;20043;-78
2023/08/17 00:11:59;;;;;;;10.82;5.47;;;;;;;;;;4902347;29;20083;-78
2023/08/17 00:14:24;;;;;;;7.78;4.97;;;;;;;;;;4902479;29;20039;-78
2023/08/17 00:16:50;;;;;;;7.90;5.47;;;;;;;;;;4902210;29;20559;-79
2023/08/17 00:19:16;;;;;;;6.65;4.90;;;;;;;;;;4886271;29;20040;-78
2023/08/17 00:21:42;;;;;;;8.15;5.22;;;;;;;;;;4918938;29;20036;-77
2023/08/17 00:24:07;;;;;;;9.93;5.28;;;;;;;;;;4901735;29;20059;-78
2023/08/17 00:26:33;;;;;;;10.30;5.50;;;;;;;;;;4886530;29;20059;-78
2023/08/17 00:28:59;;;;;;;9.80;4.97;;;;;;;;;;4919074;29;20028;-78
2023/08/17 00:31:24;;;;;;;11.68;5.32;;;;;;;;;;4902497;29;20555;-77
2023/08/17 00:33:50;;;;;;;8.27;4.63;;;;;;;;;;4902663;29;20036;-77
2023/08/17 00:36:15;;;;;;;8.57;5.78;;;;;;;;;;4919615;29;20028;-77
2023/08/17 00:38:41;;;;;;;8.98;4.68;;;;;;;;;;4901981;29;20043;-78
2023/08/17 00:41:06;;;;;;;7.03;4.80;;;;;;;;;;4901983;29;20032;-78
2023/08/17 00:43:32;;;;;;;7.82;5.03;;;;;;;;;;4918744;29;20031;-77
2023/08/17 00:45:58;;;;;;;7.43;4.53;;;;;;;;;;4901839;29;20036;-78
2023/08/17 00:48:24;;;;;;;5.82;3.97;;;;;;;;;;4885927;29;20055;-78
2023/08/17 00:50:50;;;;;;;7.78;5.00;;;;;;;;;;4918454;29;20111;-78
2023/08/17 00:53:16;;;;;;;10.98;4.90;;;;;;;;;;4901518;29;20482;-77
2023/08/17 00:55:42;;;;;;;6.82;4.45;;;;;;;;;;4885841;29;20091;-79
2023/08/17 00:58:07;;;;;;;7.32;4.53;;;;;;;;;;4901482;29;20036;-78
2023/08/17 01:00:33;;;;;;;6.13;4.38;;;;;;;;;;4901505;29;20051;-78
2023/08/17 01:02:58;;;;;;;8.77;4.50;;;;;;;;;;4901050;29;20453;-78
2023/08/17 01:05:24;;;;;;;7.13;4.50;;;;;;;;;;4901345;29;20385;-79
2023/08/17 01:07:50;;;;;;;8.25;4.85;;;;;;;;;;4901164;29;20600;-78
2023/08/17 01:10:16;;;;;;;9.18;4.78;;;;;;;;;;4918013;29;20031;-78
2023/08/17 01:12:51;;;;;;;7.82;4.57;;;;;;;;;;4885610;29;20146;-78
2023/08/17 01:15:24;;;;;;;7.18;4.55;;;;;;;;;;4901270;29;20036;-78
2023/08/17 01:17:55;;;;;;;10.25;4.65;;;;;;;;;;4885513;29;20114;-78
2023/08/17 01:20:23;;;;;;;7.78;4.32;;;;;;;;;;4918048;29;20036;-78
2023/08/17 01:22:50;;;;;;;6.70;4.07;;;;;;;;;;4901585;29;20503;-78
2023/08/17 01:25:15;;;;;;;6.80;4.43;;;;;;;;;;4902155;29;20033;-78
2023/08/17 01:27:43;;;;;;;7.30;4.35;;;;;;;;;;4901836;29;20032;-78
2023/08/17 01:30:10;;;;;;;8.10;4.78;;;;;;;;;;4918826;29;20107;-78
2023/08/17 01:32:45;;;;;;;9.30;4.13;;;;;;;;;;4907437;29;20036;-77
2023/08/17 01:35:17;;;;;;;6.45;4.25;;;;;;;;;;4920575;29;20114;-76
2023/08/17 01:37:43;;;;;;;6.65;4.47;;;;;;;;;;4922343;29;20040;-77
2023/08/17 01:40:09;;;;;;;6.43;4.47;;;;;;;;;;4922999;28;20020;-77
2023/08/17 01:42:35;;;;;;;8.50;4.50;;;;;;;;;;4922097;29;20042;-79
2023/08/17 01:45:01;;;;;;;7.70;4.72;;;;;;;;;;4940425;29;20060;-77
2023/08/17 01:47:26;;;;;;;7.00;3.83;;;;;;;;;;4917148;29;20067;-78
2023/08/17 01:49:52;;;;;;;7.60;4.45;;;;;;;;;;4919253;29;20032;-78
2023/08/17 01:52:17;;;;;;;7.75;4.85;;;;;;;;;;4915447;29;20055;-77
2023/08/17 01:54:42;;;;;;;7.32;4.40;;;;;;;;;;4931302;29;20476;-76
2023/08/17 01:57:08;;;;;;;7.60;4.13;;;;;;;;;;4922831;29;20089;-77
2023/08/17 01:59:33;;;;;;;7.43;4.18;;;;;;;;;;4902178;29;20387;-77
2023/08/17 02:01:59;;;;;;;5.72;3.78;;;;;;;;;;4885234;29;20044;-77
2023/08/17 02:04:25;;;;;;;9.10;4.28;;;;;;;;;;4900703;29;20111;-76
2023/08/17 02:06:50;;;;;;;6.38;4.10;;;;;;;;;;4917571;29;20038;-77
2023/08/17 02:09:16;;;;;;;10.68;4.88;;;;;;;;;;4918141;29;20144;-76
2023/08/17 02:11:42;;;;;;;6.60;4.45;;;;;;;;;;4900962;29;20043;-77
2023/08/17 02:14:07;;;;;;;9.40;4.93;;;;;;;;;;4900532;29;20087;-77
2023/08/17 02:16:33;;;;;;;10.13;4.97;;;;;;;;;;4916580;29;20044;-77
2023/08/17 02:18:58;;;;;;;8.82;4.63;;;;;;;;;;4917154;29;20028;-78
2023/08/17 02:21:24;;;;;;;7.38;4.80;;;;;;;;;;4916842;29;20032;-77
2023/08/17 02:23:49;;;;;;;7.85;5.18;;;;;;;;;;4900365;29;20024;-77
2023/08/17 02:26:15;;;;;;;6.25;4.40;;;;;;;;;;4916719;29;20036;-76
2023/08/17 02:28:40;;;;;;;5.22;3.33;;;;;;;;;;4916733;29;20467;-77
2023/08/17 02:31:06;;;;;;;6.32;3.00;;;;;;;;;;4916626;29;20565;-76
2023/08/17 02:33:33;;;;;;;6.65;1.88;;;;;;;;;;4899656;29;20488;-77
2023/08/17 02:35:59;;;;;;;2.20;1.02;;;;;;;;;;4916605;29;20480;-77
2023/08/17 02:38:24;;;;;;;2.53;0.95;;;;;;;;;;4884255;29;20039;-78
2023/08/17 02:40:50;;;;;;;1.45;0.90;;;;;;;;;;4899742;29;20036;-77
2023/08/17 02:43:15;;;;;;;2.13;0.95;;;;;;;;;;4916425;29;20051;-77
2023/08/17 02:45:44;;;;;;;1.85;0.82;;;;;;;;;;4884325;29;20025;-77
2023/08/17 02:48:09;;;;;;;2.30;0.80;;;;;;;;;;4916726;29;20025;-77
2023/08/17 02:50:35;;;;;;;1.67;0.82;;;;;;;;;;4916772;29;20104;-77
2023/08/17 02:53:02;;;;;;;2.03;0.85;;;;;;;;;;4899589;29;20503;-77
2023/08/17 02:55:27;;;;;;;1.17;0.63;;;;;;;;;;4884033;29;20127;-76
2023/08/17 02:57:53;;;;;;;2.95;0.95;;;;;;;;;;4899894;29;20123;-77
2023/08/17 03:00:18;;;;;;;1.83;0.77;;;;;;;;;;4884094;29;20032;-78
2023/08/17 03:02:44;;;;;;;1.23;0.70;;;;;;;;;;4899454;29;20063;-76
2023/08/17 03:05:10;;;;;;;2.20;0.90;;;;;;;;;;4916242;29;20051;-77
2023/08/17 03:07:35;;;;;;;2.90;0.90;;;;;;;;;;4916067;29;20491;-77
2023/08/17 03:10:01;;;;;;;2.15;0.90;;;;;;;;;;4916062;29;20032;-77
2023/08/17 03:12:26;;;;;;;4.15;0.70;;;;;;;;;;4898809;29;20066;-77
2023/08/17 03:14:52;;;;;;;13.40;1.10;;;;;;;;;;4899369;29;20112;-79
2023/08/17 03:17:17;;;;;;;5.65;1.08;;;;;;;;;;4916136;29;20444;-77
2023/08/17 03:19:43;;;;;;;4.10;1.23;;;;;;;;;;4899394;29;20051;-77
2023/08/17 03:22:08;;;;;;;2.75;0.95;;;;;;;;;;4899032;29;20060;-77
2023/08/17 03:24:34;;;;;;;2.60;1.20;;;;;;;;;;4899285;29;20036;-76
2023/08/17 03:26:59;;;;;;;6.60;1.25;;;;;;;;;;4916116;29;20060;-77
2023/08/17 03:29:26;;;;;;;5.72;1.20;;;;;;;;;;4915975;29;20025;-77
2023/08/17 03:31:52;;;;;;;3.72;1.08;;;;;;;;;;4899104;29;20043;-77
2023/08/17 03:34:17;;;;;;;7.18;1.35;;;;;;;;;;4899044;29;20047;-77
2023/08/17 03:36:43;;;;;;;3.17;1.30;;;;;;;;;;4883646;29;20042;-77
2023/08/17 03:39:08;;;;;;;9.05;1.20;;;;;;;;;;4899361;29;20099;-77
2023/08/17 03:41:36;;;;;;;4.93;1.30;;;;;;;;;;4898928;29;20406;-77
2023/08/17 03:44:03;;;;;;;2.78;1.13;;;;;;;;;;4883541;29;20039;-77
2023/08/17 03:46:29;;;;;;;6.70;1.55;;;;;;;;;;4898914;29;20492;-78
2023/08/17 03:48:55;;;;;;;4.93;1.40;;;;;;;;;;4867944;29;20066;-77
2023/08/17 03:51:20;;;;;;;5.25;1.90;;;;;;;;;;4899047;29;20039;-77
2023/08/17 03:53:46;;;;;;;6.38;1.35;;;;;;;;;;4915966;29;20484;-79
2023/08/17 03:56:11;;;;;;;2.42;1.17;;;;;;;;;;4899130;29;20064;-78
2023/08/17 03:58:37;;;;;;;6.97;1.48;;;;;;;;;;4884982;29;20602;-78
2023/08/17 04:01:06;;;;;;;4.53;1.50;;;;;;;;;;4901469;29;20055;-78
2023/08/17 04:03:32;;;;;;;5.00;1.40;;;;;;;;;;4907436;29;20112;-77
2023/08/17 04:06:03;;;;;;;4.82;1.42;;;;;;;;;;4909700;29;20031;-77
2023/08/17 04:08:29;;;;;;;7.35;1.77;;;;;;;;;;4912262;29;20036;-77
2023/08/17 04:10:54;;;;;;;4.65;1.33;;;;;;;;;;4927759;29;20057;-76
2023/08/17 04:13:22;;;;;;;3.03;1.40;;;;;;;;;;4896264;29;20039;-78
2023/08/17 04:15:47;;;;;;;5.70;1.75;;;;;;;;;;4910486;29;20444;-76
2023/08/17 04:18:12;;;;;;;5.97;1.50;;;;;;;;;;4912651;29;20032;-75
2023/08/17 04:20:38;;;;;;;4.57;1.30;;;;;;;;;;4935585;29;20027;-76
2023/08/17 04:23:04;;;;;;;8.82;2.25;;;;;;;;;;4933999;29;20031;-76
2023/08/17 04:25:29;;;;;;;8.15;3.15;;;;;;;;;;4883950;29;20044;-78
2023/08/17 04:27:55;;;;;;;4.43;1.80;;;;;;;;;;4898813;29;20554;-77
2023/08/17 04:30:20;;;;;;;7.13;3.40;;;;;;;;;;4883375;29;20028;-78
2023/08/17 04:32:55;;;;;;;8.45;4.18;;;;;;;;;;4882922;29;20039;-78
2023/08/17 04:35:21;;;;;;;5.10;2.00;;;;;;;;;;4898847;29;20020;-78
2023/08/17 04:37:47;;;;;;;6.22;1.90;;;;;;;;;;4898881;29;20051;-76
2023/08/17 04:40:13;;;;;;;5.75;2.70;;;;;;;;;;4919063;29;20068;-77
2023/08/17 04:42:39;;;;;;;7.15;2.17;;;;;;;;;;4902057;29;20120;-79
2023/08/17 04:45:08;;;;;;;5.25;1.80;;;;;;;;;;4902102;29;20039;-77
2023/08/17 04:47:37;;;;;;;9.68;1.83;;;;;;;;;;4871341;29;20044;-78
2023/08/17 04:50:03;;;;;;;5.70;1.90;;;;;;;;;;4918660;29;20032;-78
2023/08/17 04:52:28;;;;;;;4.57;1.60;;;;;;;;;;4885843;29;20044;-78
2023/08/17 04:54:54;;;;;;;11.55;5.50;;;;;;;;;;4901681;29;20036;-78
2023/08/17 04:57:19;;;;;;;4.47;1.60;;;;;;;;;;4901471;29;20039;-77
2023/08/17 04:59:45;;;;;;;3.38;1.50;;;;;;;;;;4901631;29;20032;-78
2023/08/17 05:02:11;;;;;;;6.20;1.98;;;;;;;;;;4901491;29;20221;-77
2023/08/17 05:04:39;;;;;;;5.97;1.67;;;;;;;;;;4901444;29;20032;-78
2023/08/17 05:07:05;;;;;;;5.07;1.50;;;;;;;;;;4901333;29;20032;-77
2023/08/17 05:09:31;;;;;;;7.38;2.00;;;;;;;;;;4901600;29;20039;-77
2023/08/17 05:11:57;;;;;;;6.60;2.25;;;;;;;;;;4901655;29;20039;-78
2023/08/17 05:14:26;;;;;;;4.75;1.77;;;;;;;;;;4918919;29;20036;-78
2023/08/17 05:16:52;;;;;;;4.53;1.60;;;;;;;;;;4886342;29;20028;-78
2023/08/17 05:19:17;;;;;;;3.25;1.60;;;;;;;;;;4886335;29;20035;-78
2023/08/17 05:21:43;;;;;;;3.28;1.35;;;;;;;;;;4870959;29;20047;-77
2023/08/17 05:24:09;;;;;;;4.70;1.70;;;;;;;;;;4901714;29;20042;-77
2023/08/17 05:26:34;;;;;;;3.15;1.38;;;;;;;;;;4918193;29;20122;-79
2023/08/17 05:29:00;;;;;;;3.25;1.38;;;;;;;;;;4917994;29;20024;-78
2023/08/17 05:31:26;;;;;;;4.28;1.33;;;;;;;;;;4901340;29;20107;-79
2023/08/17 05:33:52;;;;;;;6.50;2.17;;;;;;;;;;4918102;29;20127;-78
2023/08/17 05:36:19;;;;;;;3.83;1.70;;;;;;;;;;4900914;29;20067;-78
2023/08/17 05:38:46;;;;;;;6.47;1.50;;;;;;;;;;4885473;29;20039;-77
2023/08/17 05:41:12;;;;;;;5.30;1.35;;;;;;;;;;4900889;29;20044;-79
2023/08/17 05:43:38;;;;;;;4.55;1.30;;;;;;;;;;4900603;29;20412;-78
2023/08/17 05:46:03;;;;;;;4.32;1.40;;;;;;;;;;4900730;29;20091;-78
2023/08/17 05:48:29;;;;;;;3.33;1.35;;;;;;;;;;4885203;29;20436;-76
2023/08/17 05:50:55;;;;;;;4.80;1.45;;;;;;;;;;4916589;29;20476;-77
2023/08/17 05:53:21;;;;;;;3.95;1.50;;;;;;;;;;4900534;29;20058;-77
2023/08/17 05:55:46;;;;;;;3.85;1.45;;;;;;;;;;4917388;29;20036;-77
2023/08/17 05:58:12;;;;;;;7.28;1.45;;;;;;;;;;4900483;29;20484;-77
2023/08/17 06:00:38;;;;;;;6.35;1.33;;;;;;;;;;4917609;29;20032;-78
2023/08/17 06:03:03;;;;;;;4.07;1.20;;;;;;;;;;4900439;29;20514;-77
2023/08/17 06:05:29;;;;;;;6.22;1.42;;;;;;;;;;4917141;29;20028;-78
2023/08/17 06:07:55;;;;;;;3.50;1.38;;;;;;;;;;4916976;29;20407;-76
2023/08/17 06:10:24;;;;;;;5.35;1.60;;;;;;;;;;4917760;29;20044;-77
2023/08/17 06:12:51;;;;;;;3.15;1.40;;;;;;;;;;4916782;29;20020;-77
2023/08/17 06:15:16;;;;;;;5.68;1.60;;;;;;;;;;4900321;29;20028;-76
2023/08/17 06:17:42;;;;;;;3.45;1.40;;;;;;;;;;4917395;29;20627;-79
2023/08/17 06:20:09;;;;;;;2.60;1.40;;;;;;;;;;4900534;29;20484;-77
2023/08/17 06:22:35;;;;;;;5.63;1.60;;;;;;;;;;4917096;29;20032;-80
2023/08/17 06:25:01;;;;;;;5.50;1.50;;;;;;;;;;4917571;29;20115;-79
2023/08/17 06:27:27;;;;;;;5.72;1.90;;;;;;;;;;4900676;29;20087;-77
2023/08/17 06:29:52;;;;;;;6.05;2.63;;;;;;;;;;4900724;29;20061;-79
2023/08/17 06:32:18;;;;;;;6.50;2.70;;;;;;;;;;4916844;29;20072;-79
2023/08/17 06:34:43;;;;;;;3.67;1.90;;;;;;;;;;4916843;29;20040;-78
2023/08/17 06:37:09;;;;;;;4.28;2.10;;;;;;;;;;4884443;29;20050;-79
2023/08/17 06:39:35;;;;;;;5.53;2.63;;;;;;;;;;4917109;29;20036;-78
2023/08/17 06:42:00;;;;;;;5.93;2.85;;;;;;;;;;4903843;29;20038;-77
2023/08/17 06:44:26;;;;;;;4.90;2.80;;;;;;;;;;4932815;29;20028;-77
2023/08/17 06:46:51;;;;;;;6.30;2.58;;;;;;;;;;4905675;29;20468;-77
2023/08/17 06:49:17;;;;;;;4.90;3.10;;;;;;;;;;4935473;29;20032;-77
2023/08/17 06:51:42;;;;;;;5.43;2.90;;;;;;;;;;4938590;28;20054;-78
2023/08/17 06:54:09;;;;;;;7.30;3.83;;;;;;;;;;4936219;29;20027;-77
2023/08/17 06:56:34;;;;;;;5.00;3.25;;;;;;;;;;4938768;28;20067;-77
2023/08/17 06:59:00;;;;;;;5.05;3.17;;;;;;;;;;4909032;29;20415;-78
2023/08/17 07:01:26;;;;;;;5.47;3.28;;;;;;;;;;4917208;29;20040;-79
2023/08/17 07:03:52;;;;;;;6.97;2.95;;;;;;;;;;4916488;29;20053;-78
2023/08/17 07:06:17;;;;;;;5.78;3.63;;;;;;;;;;4916427;29;20035;-78
2023/08/17 07:08:43;;;;;;;5.72;3.33;;;;;;;;;;4917006;29;20483;-78
2023/08/17 07:11:09;;;;;;;7.00;4.22;;;;;;;;;;4916628;29;20040;-79
2023/08/17 07:13:34;;;;;;;9.55;3.42;;;;;;;;;;4916638;29;20068;-78
2023/08/17 07:16:00;;;;;;;5.53;3.22;;;;;;;;;;4916344;29;20028;-78
2023/08/17 07:18:25;;;;;;;6.13;3.55;;;;;;;;;;4916426;29;20032;-78
2023/08/17 07:20:51;;;;;;;6.38;3.25;;;;;;;;;;4916024;29;20469;-77
2023/08/17 07:23:16;;;;;;;5.72;3.35;;;;;;;;;;4899024;29;20039;-78
2023/08/17 07:25:42;;;;;;;6.88;3.60;;;;;;;;;;4883388;29;20103;-78
2023/08/17 07:28:08;;;;;;;9.18;5.05;;;;;;;;;;4915924;29;20036;-79
2023/08/17 07:30:33;;;;;;;10.30;4.50;;;;;;;;;;4915768;29;20115;-78
2023/08/17 07:32:59;;;;;;;6.75;4.07;;;;;;;;;;4898895;29;20032;-78
2023/08/17 07:35:24;;;;;;;6.25;4.18;;;;;;;;;;4898805;29;20499;-78
2023/08/17 07:37:50;;;;;;;6.13;3.88;;;;;;;;;;4916125;29;20029;-78
2023/08/17 07:40:16;;;;;;;9.13;4.80;;;;;;;;;;4899429;29;20084;-79
2023/08/17 07:42:41;;;;;;;7.63;4.50;;;;;;;;;;4916003;29;20036;-77
2023/08/17 07:45:07;;;;;;;8.52;4.35;;;;;;;;;;4916201;29;20029;-78
2023/08/17 07:47:38;;;;;;;8.20;4.30;;;;;;;;;;4899459;29;20042;-77
2023/08/17 07:50:04;;;;;;;11.93;4.95;;;;;;;;;;4899059;29;20032;-78
2023/08/17 07:52:30;;;;;;;7.55;4.15;;;;;;;;;;4915318;29;20464;-78
2023/08/17 07:54:56;;;;;;;7.72;4.70;;;;;;;;;;4883635;29;20028;-78
2023/08/17 07:57:21;;;;;;;6.82;3.80;;;;;;;;;;4915685;29;20229;-78
2023/08/17 07:59:47;;;;;;;9.27;4.88;;;;;;;;;;4898954;29;20028;-78
2023/08/17 08:02:12;;;;;;;8.90;4.85;;;;;;;;;;4898495;29;20036;-79
2023/08/17 08:04:38;;;;;;;10.75;4.28;;;;;;;;;;4898824;29;20067;-78
2023/08/17 08:07:03;;;;;;;10.13;4.72;;;;;;;;;;4883174;29;20074;-79
2023/08/17 08:09:29;;;;;;;7.75;4.90;;;;;;;;;;4883214;29;20036;-77
2023/08/17 08:11:54;;;;;;;9.02;4.75;;;;;;;;;;4883626;29;20373;-78
2023/08/17 08:14:23;;;;;;;7.03;4.93;;;;;;;;;;4885762;29;20459;-78
2023/08/17 08:16:49;;;;;;;9.00;5.13;;;;;;;;;;4886687;29;20060;-79
2023/08/17 08:19:14;;;;;;;8.55;5.28;;;;;;;;;;4919328;29;20092;-79
2023/08/17 08:21:40;;;;;;;7.30;4.70;;;;;;;;;;4919325;29;20035;-78
2023/08/17 08:24:05;;;;;;;9.13;5.25;;;;;;;;;;4886823;29;20411;-78
2023/08/17 08:26:31;;;;;;;10.60;5.82;;;;;;;;;;4918931;29;20059;-78
2023/08/17 08:28:56;;;;;;;8.75;5.07;;;;;;;;;;4886553;29;20035;-79
2023/08/17 08:31:22;;;;;;;11.35;6.32;;;;;;;;;;4919379;29;20060;-78
2023/08/17 08:33:47;;;;;;;11.85;5.65;;;;;;;;;;4918860;29;20071;-79
2023/08/17 08:36:13;;;;;;;9.75;5.40;;;;;;;;;;4918969;29;20158;-77
2023/08/17 08:38:38;;;;;;;9.85;6.25;;;;;;;;;;4918550;29;20039;-79
2023/08/17 08:41:05;;;;;;;10.27;6.60;;;;;;;;;;4901594;29;20557;-79
2023/08/17 08:43:30;;;;;;;10.27;6.10;;;;;;;;;;4901568;29;20034;-78
2023/08/17 08:45:57;;;;;;;8.77;6.00;;;;;;;;;;4901641;29;20111;-80
2023/08/17 08:48:26;;;;;;;9.00;4.93;;;;;;;;;;4901608;29;20500;-78
2023/08/17 08:50:59;;;;;;;17.38;8.15;;;;;;;;;;4901977;29;20103;-80
2023/08/17 08:53:30;;;;;;;10.00;5.78;;;;;;;;;;4918361;29;20032;-78
2023/08/17 08:55:57;;;;;;;11.55;5.47;;;;;;;;;;4920070;29;20040;-79
2023/08/17 08:58:24;;;;;;;12.73;6.57;;;;;;;;;;4922945;29;20039;-79
2023/08/17 09:00:53;;;;;;;9.68;5.82;;;;;;;;;;4892495;29;20044;-77
2023/08/17 09:03:22;;;;;;;13.20;5.65;;;;;;;;;;4923875;29;20035;-78
2023/08/17 09:05:49;;;;;;;8.98;5.50;;;;;;;;;;4901867;29;20155;-79
2023/08/17 09:08:15;;;;;;;9.85;6.10;;;;;;;;;;4894401;23;20041;-78
2023/08/17 09:10:42;;;;;;;11.10;5.25;;;;;;;;;;4867071;29;20468;-78
2023/08/17 09:13:10;;;;;;;10.98;6.03;;;;;;;;;;4897421;29;20044;-79
2023/08/17 09:15:35;;;;;;;9.95;5.55;;;;;;;;;;4882055;29;20033;-78
2023/08/17 09:18:01;;;;;;;8.07;5.63;;;;;;;;;;4881974;29;20033;-77
2023/08/17 09:20:40;;;;;;;8.52;6.20;;;;;;;;;;4897595;29;20041;-78
2023/08/17 09:23:15;;;;;;;8.73;5.45;;;;;;;;;;4898384;29;20039;-77
2023/08/17 09:25:42;;;;;;;10.70;6.38;;;;;;;;;;4866241;29;20093;-77
2023/08/17 09:28:09;;;;;;;9.80;6.07;;;;;;;;;;4881953;29;20033;-78
2023/08/17 09:30:55;;;;;;;10.48;5.47;;;;;;;;;;4881771;29;20093;-78
2023/08/17 09:33:22;;;;;;;12.55;5.60;;;;;;;;;;4850395;29;20558;-78
2023/08/17 09:35:48;;;;;;;12.05;5.60;;;;;;;;;;4881722;29;20045;-79
2023/08/17 09:38:13;;;;;;;8.65;5.72;;;;;;;;;;4881521;29;20052;-79
2023/08/17 09:40:39;;;;;;;10.90;5.55;;;;;;;;;;4881406;29;20083;-79
2023/08/17 09:43:05;;;;;;;7.38;5.60;;;;;;;;;;4896999;29;20035;-79
2023/08/17 09:45:31;;;;;;;10.32;6.28;;;;;;;;;;4881533;29;20120;-78
2023/08/17 09:47:58;;;;;;;10.07;5.47;;;;;;;;;;4865966;29;20039;-78
2023/08/17 09:50:25;;;;;;;11.25;5.53;;;;;;;;;;4866368;29;20028;-78
2023/08/17 09:52:54;;;;;;;10.60;5.55;;;;;;;;;;4850781;29;20139;-78
2023/08/17 09:55:23;;;;;;;12.63;7.38;;;;;;;;;;4881824;29;20496;-78
2023/08/17 09:57:50;;;;;;;9.07;5.93;;;;;;;;;;4850829;29;20040;-78
2023/08/17 10:00:16;;;;;;;12.27;6.28;;;;;;;;;;4866510;29;20104;-78
2023/08/17 10:02:43;;;;;;;11.85;6.95;;;;;;;;;;4897031;29;20051;-78
2023/08/17 10:05:10;;;;;;;11.95;5.78;;;;;;;;;;4881865;29;20032;-79
2023/08/17 10:07:38;;;;;;;8.40;5.85;;;;;;;;;;4898555;29;20035;-78
2023/08/17 10:10:04;;;;;;;11.20;6.57;;;;;;;;;;4881560;29;20039;-78
2023/08/17 10:12:36;;;;;;;9.52;6.10;;;;;;;;;;4881289;29;20511;-79
2023/08/17 10:15:07;;;;;;;10.57;6.15;;;;;;;;;;4881792;29;20037;-79
2023/08/17 10:17:55;;;;;;;16.83;6.82;;;;;;;;;;4881593;29;20036;-78
2023/08/17 10:20:24;;;;;;;10.13;5.95;;;;;;;;;;4882324;29;20047;-78
2023/08/17 10:22:55;;;;;;;9.00;5.30;;;;;;;;;;4899034;29;20032;-79
2023/08/17 10:25:23;;;;;;;9.60;5.65;;;;;;;;;;4883700;29;20029;-78
2023/08/17 10:27:52;;;;;;;11.90;6.00;;;;;;;;;;4900590;29;20039;-79
2023/08/17 10:30:20;;;;;;;13.38;6.40;;;;;;;;;;4901496;29;20035;-78
2023/08/17 10:32:46;;;;;;;9.55;6.18;;;;;;;;;;4900493;29;20382;-77
2023/08/17 10:35:17;;;;;;;10.10;5.75;;;;;;;;;;4884305;29;20119;-77
2023/08/17 10:37:44;;;;;;;9.60;5.40;;;;;;;;;;4883595;29;20434;-78
2023/08/17 10:40:13;;;;;;;9.02;5.50;;;;;;;;;;4869815;29;20032;-78
2023/08/17 10:42:38;;;;;;;8.02;5.05;;;;;;;;;;4882483;29;20401;-79
2023/08/17 10:45:23;;;;;;;8.65;5.60;;;;;;;;;;4867453;29;20523;-78
2023/08/17 10:47:49;;;;;;;9.15;5.82;;;;;;;;;;4883562;29;20112;-77
2023/08/17 10:50:24;;;;;;;14.38;5.18;;;;;;;;;;4882989;29;20075;-78
2023/08/17 10:52:53;;;;;;;9.70;4.90;;;;;;;;;;4867865;29;20068;-78
2023/08/17 10:55:35;;;;;;;9.20;5.70;;;;;;;;;;4881843;29;20037;-77
2023/08/17 10:58:01;;;;;;;10.38;5.80;;;;;;;;;;4880811;29;20044;-78
2023/08/17 11:00:34;;;;;;;11.27;5.43;;;;;;;;;;4881330;29;20036;-78
2023/08/17 11:03:05;;;;;;;15.32;6.20;;;;;;;;;;4897378;29;20040;-78
2023/08/17 11:05:38;;;;;;;9.23;4.70;;;;;;;;;;4897448;29;20031;-78
2023/08/17 11:08:04;;;;;;;8.68;5.18;;;;;;;;;;4865019;29;20040;-78
2023/08/17 11:10:30;;;;;;;9.55;5.00;;;;;;;;;;4895779;29;20483;-78
2023/08/17 11:12:59;;;;;;;12.98;4.68;;;;;;;;;;4895773;29;20039;-78
2023/08/17 11:15:41;;;;;;;7.65;4.25;;;;;;;;;;4881569;29;20484;-78
2023/08/17 11:18:08;;;;;;;10.63;5.10;;;;;;;;;;4897051;29;20044;-79
2023/08/17 11:20:34;;;;;;;10.80;5.10;;;;;;;;;;4849682;29;20036;-79
2023/08/17 11:23:00;;;;;;;11.00;4.60;;;;;;;;;;4864746;29;20033;-78
2023/08/17 11:25:29;;;;;;;11.32;4.97;;;;;;;;;;4895891;29;20119;-79
2023/08/17 11:27:59;;;;;;;9.75;5.22;;;;;;;;;;4896767;29;20040;-79
2023/08/17 11:30:28;;;;;;;14.60;9.38;;;;;;;;;;4896721;29;20060;-78
2023/08/17 11:32:54;;;;;;;9.85;5.10;;;;;;;;;;4896796;29;20036;-78
2023/08/17 11:35:22;;;;;;;13.38;5.47;;;;;;;;;;4880316;29;20120;-79
2023/08/17 11:37:48;;;;;;;7.60;5.22;;;;;;;;;;4864628;29;20033;-79
2023/08/17 11:40:14;;;;;;;9.38;4.43;;;;;;;;;;4895524;29;20059;-79
2023/08/17 11:42:41;;;;;;;9.82;4.45;;;;;;;;;;4879692;29;20393;-78
2023/08/17 11:45:09;;;;;;;6.63;4.20;;;;;;;;;;4879956;29;20100;-78
2023/08/17 11:47:40;;;;;;;6.43;4.28;;;;;;;;;;4879844;29;20033;-79
2023/08/17 11:50:06;;;;;;;7.10;4.43;;;;;;;;;;4900292;29;20043;-79
2023/08/17 11:52:41;;;;;;;6.70;4.43;;;;;;;;;;4883492;29;20029;-78
2023/08/17 11:55:09;;;;;;;8.52;4.28;;;;;;;;;;4883546;29;20563;-79
2023/08/17 11:57:35;;;;;;;7.78;4.45;;;;;;;;;;4900342;29;20111;-79
2023/08/17 12:00:03;;;;;;;11.15;4.25;;;;;;;;;;4900521;29;20035;-79
2023/08/17 12:02:30;;;;;;;7.50;4.28;;;;;;;;;;4900238;29;20036;-78
2023/08/17 12:04:56;;;;;;;6.28;4.25;;;;;;;;;;4868084;29;20234;-79
2023/08/17 12:07:25;;;;;;;5.70;4.30;;;;;;;;;;4883060;29;20063;-79
2023/08/17 12:09:51;;;;;;;10.60;6.00;;;;;;;;;;4883283;29;20024;-79
2023/08/17 12:12:22;;;;;;;6.32;5.35;;;;;;;;;;4868108;29;20047;-79
2023/08/17 12:14:50;;;;;;;6.15;4.78;;;;;;;;;;4853265;29;20111;-79
2023/08/17 12:17:19;;;;;;;8.73;5.40;;;;;;;;;;4900001;29;20036;-77
2023/08/17 12:19:44;;;;;;;6.15;4.78;;;;;;;;;;4899933;29;20052;-77
2023/08/17 12:22:12;;;;;;;6.70;4.80;;;;;;;;;;4867456;29;20187;-78
2023/08/17 12:24:37;;;;;;;;;;;;;;;;;;4899196;29;20037;-78
2023/08/17 12:27:05;;;;;;;6.90;4.63;;;;;;;;;;4899692;29;19937;-78
2023/08/17 12:29:30;;;;;;;7.53;4.80;;;;;;;;;;4867480;29;20037;-78
2023/08/17 12:31:59;;;;;;;6.07;3.67;;;;;;;;;;4882916;29;20041;-78
2023/08/17 12:34:25;;;;;;;9.13;4.10;;;;;;;;;;4867789;29;20049;-77
2023/08/17 12:36:51;;;;;;;6.50;4.47;;;;;;;;;;4899447;29;20129;-78
2023/08/17 12:39:17;;;;;;;10.32;4.68;;;;;;;;;;4898177;29;20052;-77
2023/08/17 12:41:44;;;;;;;9.75;4.30;;;;;;;;;;4897879;29;20029;-77
2023/08/17 12:44:13;;;;;;;7.97;4.57;;;;;;;;;;4851960;29;20035;-79
2023/08/17 12:46:42;;;;;;;7.60;4.20;;;;;;;;;;4867323;29;20579;-78
2023/08/17 12:49:08;;;;;;;8.20;4.28;;;;;;;;;;4882652;29;20036;-78
2023/08/17 12:51:34;;;;;;;5.85;4.43;;;;;;;;;;4882510;29;20052;-78
2023/08/17 12:54:00;;;;;;;7.63;4.65;;;;;;;;;;4898094;29;20036;-77
2023/08/17 12:56:25;;;;;;;6.82;4.63;;;;;;;;;;4898008;29;20039;-78
2023/08/17 12:58:51;;;;;;;6.60;3.88;;;;;;;;;;4881956;29;20043;-78
2023/08/17 13:01:18;;;;;;;10.00;4.88;;;;;;;;;;4899052;29;20028;-78
2023/08/17 13:03:44;;;;;;;8.02;5.00;;;;;;;;;;4882239;29;20408;-78
2023/08/17 13:06:09;;;;;;;7.57;4.18;;;;;;;;;;4899056;29;20033;-78
2023/08/17 13:08:38;;;;;;;10.63;4.57;;;;;;;;;;4897877;29;20044;-78
2023/08/17 13:11:04;;;;;;;10.55;7.60;;;;;;;;;;4866742;29;20044;-78
2023/08/17 13:13:30;;;;;;;11.30;4.80;;;;;;;;;;4897736;29;20040;-78
2023/08/17 13:15:55;;;;;;;6.00;4.28;;;;;;;;;;4897819;29;20445;-78
2023/08/17 13:18:21;;;;;;;7.38;4.57;;;;;;;;;;4897777;29;20036;-78
2023/08/17 13:20:47;;;;;;;6.53;5.07;;;;;;;;;;4866556;29;20041;-76
2023/08/17 13:23:13;;;;;;;6.68;4.38;;;;;;;;;;4898655;29;20377;-78
2023/08/17 13:25:38;;;;;;;6.82;4.75;;;;;;;;;;4881916;29;20029;-78
2023/08/17 13:28:04;;;;;;;7.80;4.20;;;;;;;;;;4866612;29;20511;-78
2023/08/17 13:30:30;;;;;;;5.90;4.45;;;;;;;;;;4898908;29;20053;-78
2023/08/17 13:32:56;;;;;;;6.63;4.10;;;;;;;;;;4898490;29;20037;-78
2023/08/17 13:35:25;;;;;;;5.43;4.45;;;;;;;;;;4882567;29;20124;-78
2023/08/17 13:37:53;;;;;;;7.30;4.35;;;;;;;;;;4881699;29;20097;-78
2023/08/17 13:40:19;;;;;;;6.28;4.30;;;;;;;;;;4881779;29;20040;-78
2023/08/17 13:42:47;;;;;;;7.22;4.78;;;;;;;;;;4866493;29;20044;-78
2023/08/17 13:45:15;;;;;;;10.95;5.32;;;;;;;;;;4866845;29;20036;-77
2023/08/17 13:47:41;;;;;;;6.90;4.65;;;;;;;;;;4897303;29;20392;-78
2023/08/17 13:50:07;;;;;;;8.85;4.68;;;;;;;;;;4881716;29;20108;-77
2023/08/17 13:52:35;;;;;;;9.88;4.40;;;;;;;;;;4897323;29;20044;-80
2023/08/17 13:55:01;;;;;;;7.97;4.80;;;;;;;;;;4866226;29;20112;-79
2023/08/17 13:57:27;;;;;;;7.45;5.00;;;;;;;;;;4868421;29;20469;-79
2023/08/17 13:59:53;;;;;;;9.40;5.20;;;;;;;;;;4898573;29;20112;-79
2023/08/17 14:02:19;;;;;;;8.27;5.63;;;;;;;;;;4899295;29;20481;-80
2023/08/17 14:04:45;;;;;;;6.80;4.82;;;;;;;;;;4867388;29;20112;-79
2023/08/17 14:07:11;;;;;;;9.50;5.13;;;;;;;;;;4867794;29;20071;-80
2023/08/17 14:09:37;;;;;;;6.45;5.20;;;;;;;;;;4852519;29;20045;-78
2023/08/17 14:12:04;;;;;;;7.47;5.15;;;;;;;;;;4883310;29;20036;-79
2023/08/17 14:14:30;;;;;;;7.55;5.25;;;;;;;;;;4899291;29;20087;-79
2023/08/17 14:16:56;;;;;;;6.25;4.82;;;;;;;;;;4868752;29;20050;-78
2023/08/17 14:19:25;;;;;;;8.93;5.43;;;;;;;;;;4900923;29;20028;-79
2023/08/17 14:21:52;;;;;;;6.95;5.28;;;;;;;;;;4884560;29;20124;-78
2023/08/17 14:24:18;;;;;;;8.55;5.47;;;;;;;;;;4869703;29;20029;-79
2023/08/17 14:26:46;;;;;;;8.23;5.47;;;;;;;;;;4901782;29;20036;-78
2023/08/17 14:29:12;;;;;;;7.88;5.43;;;;;;;;;;4886449;29;20051;-78
2023/08/17 14:31:38;;;;;;;11.25;5.63;;;;;;;;;;4885123;29;20408;-77
2023/08/17 14:34:07;;;;;;;10.80;5.63;;;;;;;;;;4870330;29;20040;-79
2023/08/17 14:36:33;;;;;;;7.60;5.60;;;;;;;;;;4854943;29;20040;-79
2023/08/17 14:38:58;;;;;;;11.00;5.97;;;;;;;;;;4869214;29;20048;-79